Lisca, Slovenia

1:47 AM CEST on September 01, 2015 (GMT +0200)
Velika Preska | | Change Station
CLOSE
Current Station
Personal Weather Station
Location: Velika Preska, LITIJA
Elevation: 2585 ft
Nearby Weather Stations

Elev 2585 ft 46.05 °N, 14.96 °E | Updated 2 minutes ago

Clear
Clear
67.3 °F
Feels Like 67.3 °F
N
5.0
Wind Variable Wind from West
Gusts 7.0 mph

Today
High -- | Low -- °F
--% Chance of Precip.
Yesterday
High -- | Low -- °F
Precip. -- in
6:18 AM 7:38 PM
Waning Gibbous, 93% visible
Pressure 30.01 in
Visibility 6.2 miles
Clouds
Dew Point 58 °F
Humidity 73%
Rainfall 0.00 in
Snow Depth Not available.
UV Not available.
Pollen Not available.
Air Quality Not available.
Flu Activity Not available.
METAR LOWK 312320Z AUTO 29005KT 9999 NCD 18/14 Q1016
Pressure 30.01 in
Visibility 6.2 miles
Clouds
Dew Point 58 °F
Humidity 73%
Rainfall 0.00 in
Snow Depth Not available.
UV Not available.
Pollen Not available.
Air Quality Not available.
Flu Activity Not available.
METAR LOWK 312320Z AUTO 29005KT 9999 NCD 18/14 Q1016

10-Day Weather Forecast

×

Almanac

Astronomy

Sep. 01, 2015 Rise Set
Actual Time
Civil Twilight
Nautical Twilight
Astronomical Twilight
Moon
Length of Visible Light
Length of Day
Tomorrow will be .
, % of the Moon is Illuminated

Today's Extremes

Country Highs Country Lows

Community

WunderPhotos

Upload Photos

1,851,395 photos uploaded!

WunderBlogs® & News

Nearby

Air Quality

  Air Quality AQ Index Pollutant
Not available.

Snow Depth

Station Depth Elevation

Earthquake Activity

City Distance Mag. Time & Date
Minimum magnitude displayed is 2.5.

Coastal Water Temperatures

Place Temperature

Stations

Nearby Weather Stations

Station Location Temp. Windchill Dew Point Humidity Wind Precip. Elev Updated Type